Terminal Aerodrome Forecast
Issued by NWS

Home | Current Version | Previous Version | Graphics & Text | Print | Product List | Glossary On
Versions: 1 2 3 4 5 6 7 8 9 10 11 12 13 14 15 16 17 18
000
FTUS43 KBIS 240500
TAFJMS
TAF
KJMS 240540Z 2406/2506 28011KT P6SM SCT250
     FM241600 33008KT P6SM OVC035
     FM242000 36008KT 3SM -RA BR OVC012
     FM250000 36010KT 3SM -SN BR OVC006=

USA.gov is the U.S. government's official web portal to all federal, state and local government web resources and services.